Latest Coastal Weather Observations for Mandora

IDW60701

Issued at 6:23 pm WST Sunday 24 September 2017 (issued every 10 minutes, with the page automatically refreshed every 10 minutes)

About coastal observations | Map of coastal stations | Coastal observations for WA | Marine services | Other Formats
Station Details ID: 004019 Name: MANDORA Lat: -19.74 Lon: 120.84 Height: 7.5 m
Data from the previous 72 hours. | See also: Recent months at Mandora
Date/Time
WST
Temp
°C
Wind Pressure Rain since
9am
mm
Weather Cloud Vis
km
Sea
Height
m
Swell
Dir  Spd
kts
Gust
kts
hPa Trend Height
m
Period
s
Dir
24/06:00pm 23.1 WNW 11 16 1009.7 - 0.0 - - - - - - -
24/05:30pm 23.6 WNW 13 20 1009.6 - 0.0 - - - - - - -
24/05:00pm 24.4 WNW 13 21 1009.4 - 0.0 - - - - - - -
24/04:30pm 25.1 WNW 15 23 1009.3 - 0.0 - - - - - - -
24/04:00pm 25.7 WNW 15 21 1009.3 - 0.0 - - - - - - -
24/03:30pm 26.4 WNW 13 24 1009.3 - 0.0 - - - - - - -
24/03:00pm 27.3 WNW 12 21 1009.5 - 0.0 - - - - - - -
24/02:30pm 27.2 WNW 14 24 1009.7 - 0.0 - - - - - - -
24/02:00pm 27.8 WNW 14 23 1009.9 - 0.0 - - - - - - -
24/01:30pm 28.0 WNW 14 22 1010.1 - 0.0 - - - - - - -
24/01:00pm 27.8 WNW 13 20 1010.5 - 0.0 - - - - - - -
24/12:30pm 27.5 WNW 14 21 1010.8 - 0.0 - - - - - - -
24/12:00pm 27.6 WNW 13 21 1011.2 - 0.0 - - - - - - -
24/11:30am 28.1 WNW 12 18 1011.6 - 0.0 - - - - - - -
24/11:00am 28.0 WNW 13 19 1012.0 - 0.0 - - - - - - -
24/10:30am 27.3 WNW 13 19 1012.2 - 0.0 - - - - - - -
24/10:00am 27.0 WNW 13 19 1012.4 - 0.0 - - - - - - -
24/09:30am 27.2 WNW 11 17 1012.6 - 0.0 - - - - - - -
24/09:00am 27.0 W 11 16 1012.7 - 0.0 - - - - - - -
24/08:30am 25.7 W 11 17 1012.9 - 0.0 - - - - - - -
24/08:00am 24.7 WSW 10 14 1012.8 - 0.0 - - - - - - -
24/07:30am 22.5 WSW 8 13 1012.6 - 0.0 - - - - - - -
24/07:00am 19.6 WSW 7 10 1012.2 - 0.0 - - - - - - -
24/06:30am 16.2 SW 4 6 1012.0 - 0.0 - - - - - - -
24/06:00am 15.2 WSW 5 5 1011.9 - 0.0 - - - - - - -
24/05:30am 15.3 SW 6 7 1011.6 - 0.0 - - - - - - -
24/05:00am 15.1 SW 6 7 1011.4 - 0.0 - - - - - - -
24/04:30am 14.9 SW 6 7 1011.3 - 0.0 - - - - - - -
24/04:00am 12.2 SW 5 6 1011.0 - 0.0 - - - - - - -
24/03:30am 12.3 SSW 4 5 1010.9 - 0.0 - - - - - - -
24/03:00am 13.3 SW 4 5 1011.0 - 0.0 - - - - - - -
24/02:30am 13.1 SW 4 5 1011.1 - 0.0 - - - - - - -
24/02:00am 14.1 WSW 4 4 1011.4 - 0.0 - - - - - - -
24/01:30am 15.5 SW 4 5 1011.5 - 0.0 - - - - - - -
24/01:00am 17.6 WNW 7 8 1011.8 - 0.0 - - - - - - -
24/12:30am 17.2 W 6 6 1012.0 - 0.0 - - - - - - -
24/12:00am 16.0 WNW 5 6 1012.2 - 0.0 - - - - - - -
 
Date/Time
WST
Temp
°C
Wind Pressure Rain since
9am
mm
Weather Cloud Vis
km
Sea
Height
m
Swell
Dir  Spd
kts
Gust
kts
hPa Trend Height
m
Period
s
Dir
23/11:30pm 16.8 WNW 5 6 1012.3 - 0.0 - - - - - - -
23/11:00pm 18.5 WNW 5 6 1012.4 - 0.0 - - - - - - -
23/10:30pm 19.3 W 5 6 1012.3 - 0.0 - - - - - - -
23/10:00pm 19.4 WNW 6 6 1012.4 - 0.0 - - - - - - -
23/09:30pm 19.8 WNW 6 7 1012.4 - 0.0 - - - - - - -
23/09:00pm 20.4 WNW 5 6 1012.4 - 0.0 - - - - - - -
23/08:30pm 21.1 WNW 5 6 1012.2 - 0.0 - - - - - - -
23/08:00pm 21.9 WNW 6 8 1012.0 - 0.0 - - - - - - -
23/07:30pm 21.9 NW 5 7 1011.7 - 0.0 - - - - - - -
23/07:00pm 22.8 WNW 6 8 1011.5 - 0.0 - - - - - - -
23/06:30pm 23.8 WNW 6 9 1011.3 - 0.0 - - - - - - -
23/06:00pm 24.9 WNW 6 9 1011.1 - 0.0 - - - - - - -
23/05:30pm 26.7 NW 8 11 1011.2 - 0.0 - - - - - - -
23/05:00pm 27.9 NW 10 14 1011.1 - 0.0 - - - - - - -
23/04:30pm 29.7 WNW 9 14 1011.1 - 0.0 - - - - - - -
23/04:00pm 30.0 NW 11 16 1011.0 - 0.0 - - - - - - -
23/03:30pm 31.3 WNW 11 17 1011.1 - 0.0 - - - - - - -
23/03:00pm 32.4 WNW 11 17 1011.1 - 0.0 - - - - - - -
23/02:30pm 32.3 WNW 12 17 1011.2 - 0.0 - - - - - - -
23/02:00pm 32.1 NW 13 17 1011.4 - 0.0 - - - - - - -
23/01:30pm 33.3 WNW 12 17 1011.5 - 0.0 - - - - - - -
23/01:00pm 33.5 WNW 13 18 1011.7 - 0.0 - - - - - - -
23/12:30pm 34.5 WNW 11 18 1011.9 - 0.0 - - - - - - -
23/12:00pm 34.0 WNW 13 21 1012.3 - 0.0 - - - - - - -
23/11:30am 34.6 WNW 11 16 1012.4 - 0.0 - - - - - - -
23/11:00am 35.0 WSW 10 15 1012.6 - 0.0 - - - - - - -
23/10:30am 34.0 SW 10 18 1013.0 - 0.0 - - - - - - -
23/10:00am 33.2 SW 10 15 1013.3 - 0.0 - - - - - - -
23/09:30am 31.8 SW 8 11 1013.7 - 0.0 - - - - - - -
23/09:00am 30.3 WSW 7 11 1013.8 - 0.4 - - - - - - -
23/08:30am 27.7 WSW 8 11 1013.8 - 0.4 - - - - - - -
23/08:00am 25.1 WSW 10 14 1013.7 - 0.4 - - - - - - -
23/07:30am 21.7 SW 6 9 1013.6 - 0.4 - - - - - - -
23/07:00am 20.5 WSW 5 7 1013.4 - 0.2 - - - - - - -
23/06:30am 18.1 SW 7 8 1012.9 - 0.2 - - - - - - -
23/06:00am 16.9 SW 4 5 1012.8 - 0.2 - - - - - - -
23/05:30am 16.6 WSW 5 6 1012.6 - 0.2 - - - - - - -
23/05:00am 15.9 W 3 4 1012.4 - 0.2 - - - - - - -
23/04:30am 17.4 SW 6 7 1012.2 - 0.2 - - - - - - -
23/04:00am 16.9 SW 5 6 1012.1 - 0.2 - - - - - - -
23/03:30am 17.2 W 4 5 1011.8 - 0.2 - - - - - - -
23/03:00am 17.4 WSW 5 6 1011.8 - 0.2 - - - - - - -
23/02:30am 18.5 WSW 4 6 1011.5 - 0.2 - - - - - - -
23/02:00am 18.0 W 4 7 1011.7 - 0.2 - - - - - - -
23/01:30am 18.5 WSW 5 7 1011.7 - 0.2 - - - - - - -
23/01:00am 19.1 WSW 5 6 1011.8 - 0.2 - - - - - - -
23/12:30am 19.6 WSW 5 5 1011.9 - 0.2 - - - - - - -
23/12:00am 20.1 W 5 5 1012.1 - 0.2 - - - - - - -
 
Date/Time
WST
Temp
°C
Wind Pressure Rain since
9am
mm
Weather Cloud Vis
km
Sea
Height
m
Swell
Dir  Spd
kts
Gust
kts
hPa Trend Height
m
Period
s
Dir
22/11:30pm 20.9 W 5 7 1012.1 - 0.2 - - - - - - -
22/11:00pm 21.4 W 7 8 1012.3 - 0.2 - - - - - - -
22/10:30pm 21.6 WNW 6 7 1012.3 - 0.2 - - - - - - -
22/10:00pm 22.0 WNW 7 8 1012.3 - 0.2 - - - - - - -
22/09:30pm 21.9 WNW 6 8 1012.2 - 0.2 - - - - - - -
22/09:00pm 21.6 NW 5 6 1012.2 - 0.2 - - - - - - -
22/08:30pm 22.1 NNW 5 6 1011.9 - 0.2 - - - - - - -
22/08:00pm 22.7 WNW 6 8 1011.6 - 0.2 - - - - - - -
22/07:30pm 22.9 NNW 6 8 1011.3 - 0.2 - - - - - - -
22/07:00pm 22.7 NW 5 6 1010.9 - 0.2 - - - - - - -
22/06:30pm 23.9 NNW 5 7 1010.7 - 0.2 - - - - - - -
22/06:00pm 25.6 NW 7 9 1010.3 - 0.2 - - - - - - -
22/05:30pm 28.4 WNW 7 10 1010.0 - 0.2 - - - - - - -
22/05:00pm 29.9 WNW 9 13 1009.9 - 0.2 - - - - - - -
22/04:30pm 31.4 WNW 9 14 1009.7 - 0.2 - - - - - - -
22/04:00pm 31.9 WNW 10 14 1009.7 - 0.2 - - - - - - -
22/03:30pm 32.4 WNW 11 16 1009.7 - 0.2 - - - - - - -
22/03:00pm 31.5 WNW 12 17 1010.0 - 0.2 - - - - - - -
22/02:30pm 33.6 W 11 16 1009.9 - 0.2 - - - - - - -
22/02:00pm 33.2 W 11 17 1010.1 - 0.2 - - - - - - -
22/01:30pm 31.4 WNW 11 15 1010.6 - 0.2 - - - - - - -
22/01:00pm 31.2 WNW 10 14 1011.0 - 0.2 - - - - - - -
22/12:30pm 30.9 WNW 10 14 1011.4 - 0.2 - - - - - - -
22/12:00pm 29.7 WNW 9 14 1011.8 - 0.2 - - - - - - -
22/11:30am 29.6 NW 10 16 1012.3 - 0.2 - - - - - - -
22/11:00am 29.9 NW 9 14 1012.4 - 0.2 - - - - - - -
22/10:30am 29.6 NW 8 13 1012.7 - 0.2 - - - - - - -
22/10:00am 29.3 WNW 8 13 1012.8 - 0.2 - - - - - - -
22/09:30am 29.1 WNW 7 10 1012.8 - 0.2 - - - - - - -
22/09:00am 27.5 WNW 8 11 1013.0 - 0.2 - - - - - - -
22/08:30am 23.9 W 6 9 1012.9 - 0.2 - - - - - - -
22/08:00am 23.4 WSW 4 5 1012.7 - 0.2 - - - - - - -
22/07:30am 22.4 CALM 0 0 1012.5 - 0.2 - - - - - - -
22/07:00am 20.6 W 1 4 1012.3 - 0.2 - - - - - - -
22/06:30am 19.6 CALM 0 0 1012.1 - 0.2 - - - - - - -
22/06:00am 19.9 CALM 0 0 1011.8 - 0.2 - - - - - - -
22/05:30am 20.1 CALM 0 0 1011.5 - 0.2 - - - - - - -
22/05:00am 20.7 WSW 2 3 1011.1 - 0.2 - - - - - - -
22/04:30am 21.5 WSW 1 4 1010.9 - 0.0 - - - - - - -
22/04:00am 21.6 WSW 5 7 1010.6 - 0.0 - - - - - - -
22/03:30am 20.7 WSW 4 5 1010.5 - 0.0 - - - - - - -
22/03:00am 21.5 W 4 5 1010.4 - 0.0 - - - - - - -
22/02:30am 21.4 W 4 5 1010.5 - 0.0 - - - - - - -
22/02:00am 21.7 W 4 5 1010.7 - 0.0 - - - - - - -
22/01:30am 22.1 WNW 5 7 1010.8 - 0.0 - - - - - - -
22/01:00am 22.5 WNW 5 8 1010.8 - 0.0 - - - - - - -
22/12:30am 21.4 WNW 4 6 1010.9 - 0.0 - - - - - - -
22/12:00am 21.5 NW 4 5 1011.1 - 0.0 - - - - - - -
 
Date/Time
WST
Temp
°C
Wind Pressure Rain since
9am
mm
Weather Cloud Vis
km
Sea
Height
m
Swell
Dir  Spd
kts
Gust
kts
hPa Trend Height
m
Period
s
Dir
21/11:30pm 21.6 NNW 4 5 1011.2 - 0.0 - - - - - - -
21/11:00pm 22.3 NW 4 5 1011.3 - 0.0 - - - - - - -
21/10:30pm 23.1 WNW 4 5 1011.2 - 0.0 - - - - - - -
21/10:00pm 23.4 WNW 5 6 1011.5 - 0.0 - - - - - - -
21/09:30pm 23.4 WNW 6 9 1011.4 - 0.0 - - - - - - -
21/09:00pm 23.3 NNW 5 7 1011.3 - 0.0 - - - - - - -
21/08:30pm 23.5 NNW 5 7 1011.2 - 0.0 - - - - - - -
21/08:00pm 22.2 N 5 6 1010.8 - 0.0 - - - - - - -
21/07:30pm 22.4 NNW 4 5 1010.4 - 0.0 - - - - - - -
21/07:00pm 23.0 NNW 4 5 1009.9 - 0.0 - - - - - - -
21/06:30pm 24.0 NNW 5 6 1009.5 - 0.0 - - - - - - -

Other Formats:

Comma delimited format used in spreadsheet applications
http://www.bom.gov.au/fwo/IDW60701/IDW60701.94200.axf

JavaScript Object Notation format (JSON) in row-major order
http://www.bom.gov.au/fwo/IDW60701/IDW60701.94200.json